There are multiple Weather-warnings   Click here for more information


Meteo18 Weather Cam more information Meteo18 Weather Cam


warning for Thunderstorms more information blitzortung!


Rain radar more information rain snow radar


Visit our other weather sites:

Template documentation
and downloads

And another site



Weather Underground History page Text

Daily Summary for August 3, 2017 Units:  Both    English   Metric
« Previous Day
Next Day »
Daily Weekly Monthly Yearly Custom
  High: Low: Average:
Temperature: 79.3 °F /  26.3 °C 62.4 °F /  16.9 °C 71.2 °F /  21.8 °C
Dew Point: 66.7 °F /  19.3 °C 59.4 °F /  15.2 °C 62.8 °F /  17.1 °C
Humidity: 91 % 59 % 75 %
Wind Speed: 20 mph /  32.2 km/h - 5.7 mph /  9.2 km/h
Wind Gust: 24 mph /  38.6 km/h - -
Wind:- - WSW
Pressure: 30.1 in /  1018.5 hPa 30 in /  1016.1 hPa -
Precipitation: 0 in /  0.0 mm    
Historical Graphs
 
 
Tabular Data for August 3, 2017
Time Temperature Dew Point Pressure Wind Wind Speed Wind Gust Humidity Rainfall Rate (Hourly)
00:02 72.1 °F /  22.3 °C 66 °F /  18.9 °C 30 in /  1016.8 hPa Calm   1 mph /  1.6 km/h 81 % 0 in /  0.0 mm
00:07 72.9 °F /  22.7 °C 65.3 °F /  18.5 °C 30 in /  1016.5 hPa WNW 2 mph /  3.2 km/h 3 mph /  4.8 km/h 77 % 0 in /  0.0 mm
00:12 73.2 °F /  22.9 °C 64.8 °F /  18.2 °C 30 in /  1016.5 hPa Calm   3 mph /  4.8 km/h 75 % 0 in /  0.0 mm
00:17 73.4 °F /  23.0 °C 64.6 °F /  18.1 °C 30 in /  1016.5 hPa Calm   3 mph /  4.8 km/h 74 % 0 in /  0.0 mm
00:22 73.2 °F /  22.9 °C 64.4 °F /  18.0 °C 30 in /  1016.5 hPa Calm   3 mph /  4.8 km/h 74 % 0 in /  0.0 mm
00:27 73.6 °F /  23.1 °C 64.4 °F /  18.0 °C 30 in /  1016.5 hPa Calm   3 mph /  4.8 km/h 73 % 0 in /  0.0 mm
00:32 73.6 °F /  23.1 °C 64 °F /  17.8 °C 30 in /  1016.5 hPa Calm   1 mph /  1.6 km/h 72 % 0 in /  0.0 mm
00:37 73.6 °F /  23.1 °C 63.7 °F /  17.6 °C 30 in /  1016.5 hPa Calm   1 mph /  1.6 km/h 71 % 0 in /  0.0 mm
00:42 73.8 °F /  23.2 °C 63.3 °F /  17.4 °C 30 in /  1016.5 hPa West 1 mph /  1.6 km/h 2 mph /  3.2 km/h 70 % 0 in /  0.0 mm
00:47 73.9 °F /  23.3 °C 63.5 °F /  17.5 °C 30 in /  1016.8 hPa Calm   2 mph /  3.2 km/h 70 % 0 in /  0.0 mm
00:52 73.8 °F /  23.2 °C 63.3 °F /  17.4 °C 30 in /  1016.8 hPa West 2 mph /  3.2 km/h 2 mph /  3.2 km/h 70 % 0 in /  0.0 mm
01:02 73.6 °F /  23.1 °C 62.8 °F /  17.1 °C 30 in /  1016.8 hPa WSW 1 mph /  1.6 km/h 3 mph /  4.8 km/h 69 % 0 in /  0.0 mm
01:07 73.2 °F /  22.9 °C 62.4 °F /  16.9 °C 30 in /  1016.8 hPa West 2 mph /  3.2 km/h 4 mph /  6.4 km/h 69 % 0 in /  0.0 mm
01:12 73.2 °F /  22.9 °C 62.4 °F /  16.9 °C 30 in /  1016.8 hPa WNW 3 mph /  4.8 km/h 5 mph /  8.0 km/h 69 % 0 in /  0.0 mm
01:17 73.2 °F /  22.9 °C 62.1 °F /  16.7 °C 30 in /  1016.8 hPa West 2 mph /  3.2 km/h 5 mph /  8.0 km/h 68 % 0 in /  0.0 mm
01:22 73 °F /  22.8 °C 62.2 °F /  16.8 °C 30 in /  1016.8 hPa WNW 2 mph /  3.2 km/h 6 mph /  9.7 km/h 69 % 0 in /  0.0 mm
01:27 72.9 °F /  22.7 °C 62.1 °F /  16.7 °C 30 in /  1016.8 hPa NW 3 mph /  4.8 km/h 6 mph /  9.7 km/h 69 % 0 in /  0.0 mm
01:32 72.7 °F /  22.6 °C 61.9 °F /  16.6 °C 30 in /  1016.8 hPa West 1 mph /  1.6 km/h 5 mph /  8.0 km/h 69 % 0 in /  0.0 mm
01:42 72.7 °F /  22.6 °C 61.9 °F /  16.6 °C 30 in /  1016.8 hPa Calm   4 mph /  6.4 km/h 69 % 0 in /  0.0 mm
01:47 72.5 °F /  22.5 °C 61.3 °F /  16.3 °C 30 in /  1016.8 hPa Calm   4 mph /  6.4 km/h 68 % 0 in /  0.0 mm
01:52 72.3 °F /  22.4 °C 61.5 °F /  16.4 °C 30 in /  1016.8 hPa Calm   4 mph /  6.4 km/h 69 % 0 in /  0.0 mm
01:57 72.1 °F /  22.3 °C 61.3 °F /  16.3 °C 30 in /  1016.8 hPa Calm   2 mph /  3.2 km/h 69 % 0 in /  0.0 mm
02:02 72 °F /  22.2 °C 61.7 °F /  16.5 °C 30 in /  1016.5 hPa Calm   1 mph /  1.6 km/h 70 % 0 in /  0.0 mm
02:07 71.6 °F /  22.0 °C 61.7 °F /  16.5 °C 30 in /  1016.5 hPa Calm   2 mph /  3.2 km/h 71 % 0 in /  0.0 mm
02:12 71.1 °F /  21.7 °C 61.5 °F /  16.4 °C 30 in /  1016.8 hPa Calm   2 mph /  3.2 km/h 72 % 0 in /  0.0 mm
02:17 70.7 °F /  21.5 °C 62.1 °F /  16.7 °C 30 in /  1016.8 hPa Calm   2 mph /  3.2 km/h 74 % 0 in /  0.0 mm
02:22 70 °F /  21.1 °C 61.7 °F /  16.5 °C 30 in /  1016.8 hPa Calm   1 mph /  1.6 km/h 75 % 0 in /  0.0 mm
02:27 69.3 °F /  20.7 °C 62.1 °F /  16.7 °C 30 in /  1016.8 hPa Calm   1 mph /  1.6 km/h 78 % 0 in /  0.0 mm
02:32 68.7 °F /  20.4 °C 61.9 °F /  16.6 °C 30 in /  1016.8 hPa Calm   1 mph /  1.6 km/h 79 % 0 in /  0.0 mm
02:37 69.1 °F /  20.6 °C 61.5 °F /  16.4 °C 30 in /  1016.8 hPa Calm   1 mph /  1.6 km/h 77 % 0 in /  0.0 mm
02:42 69.6 °F /  20.9 °C 61.3 °F /  16.3 °C 30 in /  1016.8 hPa Calm   1 mph /  1.6 km/h 75 % 0 in /  0.0 mm
02:47 70 °F /  21.1 °C 61.3 °F /  16.3 °C 30 in /  1016.8 hPa Calm   1 mph /  1.6 km/h 74 % 0 in /  0.0 mm
02:52 69.8 °F /  21.0 °C 61.5 °F /  16.4 °C 30 in /  1016.8 hPa Calm     75 % 0 in /  0.0 mm
02:57 69.1 °F /  20.6 °C 61.5 °F /  16.4 °C 30 in /  1016.8 hPa Calm     77 % 0 in /  0.0 mm
03:02 69.1 °F /  20.6 °C 61.2 °F /  16.2 °C 30 in /  1016.8 hPa Calm     76 % 0 in /  0.0 mm
03:07 69.1 °F /  20.6 °C 61.2 °F /  16.2 °C 30 in /  1016.8 hPa Calm     76 % 0 in /  0.0 mm
03:12 69.1 °F /  20.6 °C 61.2 °F /  16.2 °C 30 in /  1016.8 hPa Calm     76 % 0 in /  0.0 mm
03:17 69.1 °F /  20.6 °C 61.2 °F /  16.2 °C 30 in /  1016.8 hPa Calm     76 % 0 in /  0.0 mm
03:22 68.9 °F /  20.5 °C 61 °F /  16.1 °C 30 in /  1016.8 hPa Calm     76 % 0 in /  0.0 mm
03:27 68.5 °F /  20.3 °C 61 °F /  16.1 °C 30 in /  1016.8 hPa Calm     77 % 0 in /  0.0 mm
03:32 68.2 °F /  20.1 °C 61.3 °F /  16.3 °C 30 in /  1016.8 hPa Calm     79 % 0 in /  0.0 mm
03:37 67.8 °F /  19.9 °C 61.3 °F /  16.3 °C 30 in /  1016.8 hPa Calm     80 % 0 in /  0.0 mm
03:42 67.6 °F /  19.8 °C 61.2 °F /  16.2 °C 30 in /  1016.8 hPa Calm     80 % 0 in /  0.0 mm
03:47 67.5 °F /  19.7 °C 61.3 °F /  16.3 °C 30 in /  1016.8 hPa Calm   2 mph /  3.2 km/h 81 % 0 in /  0.0 mm
03:52 67.1 °F /  19.5 °C 61.3 °F /  16.3 °C 30 in /  1016.8 hPa Calm   2 mph /  3.2 km/h 82 % 0 in /  0.0 mm
03:57 66.4 °F /  19.1 °C 61.3 °F /  16.3 °C 30 in /  1016.8 hPa Calm   2 mph /  3.2 km/h 84 % 0 in /  0.0 mm
04:02 66 °F /  18.9 °C 61 °F /  16.1 °C 30 in /  1016.8 hPa Calm   1 mph /  1.6 km/h 84 % 0 in /  0.0 mm
04:07 65.7 °F /  18.7 °C 61 °F /  16.1 °C 30 in /  1016.8 hPa Calm     85 % 0 in /  0.0 mm
04:12 65.7 °F /  18.7 °C 61 °F /  16.1 °C 30 in /  1016.8 hPa Calm   1 mph /  1.6 km/h 85 % 0 in /  0.0 mm
04:17 65.5 °F /  18.6 °C 60.8 °F /  16.0 °C 30 in /  1016.8 hPa Calm   2 mph /  3.2 km/h 85 % 0 in /  0.0 mm
04:22 65.1 °F /  18.4 °C 60.4 °F /  15.8 °C 30 in /  1016.8 hPa Calm   2 mph /  3.2 km/h 85 % 0 in /  0.0 mm
04:32 64.9 °F /  18.3 °C 60.6 °F /  15.9 °C 30 in /  1016.5 hPa Calm   1 mph /  1.6 km/h 86 % 0 in /  0.0 mm
04:37 64.8 °F /  18.2 °C 60.4 °F /  15.8 °C 30 in /  1016.5 hPa Calm   1 mph /  1.6 km/h 86 % 0 in /  0.0 mm
04:42 64.6 °F /  18.1 °C 60.6 °F /  15.9 °C 30 in /  1016.5 hPa Calm   1 mph /  1.6 km/h 87 % 0 in /  0.0 mm
04:47 64.6 °F /  18.1 °C 60.6 °F /  15.9 °C 30 in /  1016.5 hPa Calm   1 mph /  1.6 km/h 87 % 0 in /  0.0 mm
04:52 64.6 °F /  18.1 °C 60.6 °F /  15.9 °C 30 in /  1016.5 hPa Calm   1 mph /  1.6 km/h 87 % 0 in /  0.0 mm
04:57 64.6 °F /  18.1 °C 60.6 °F /  15.9 °C 30 in /  1016.5 hPa Calm   2 mph /  3.2 km/h 87 % 0 in /  0.0 mm
05:02 64.6 °F /  18.1 °C 60.6 °F /  15.9 °C 30 in /  1016.5 hPa Calm   2 mph /  3.2 km/h 87 % 0 in /  0.0 mm
05:07 64.2 °F /  17.9 °C 60.3 °F /  15.7 °C 30 in /  1016.5 hPa Calm   1 mph /  1.6 km/h 87 % 0 in /  0.0 mm
05:12 64.2 °F /  17.9 °C 60.6 °F /  15.9 °C 30 in /  1016.5 hPa ESE 1 mph /  1.6 km/h 2 mph /  3.2 km/h 88 % 0 in /  0.0 mm
05:22 63.7 °F /  17.6 °C 60.1 °F /  15.6 °C 30 in /  1016.5 hPa South 1 mph /  1.6 km/h 2 mph /  3.2 km/h 88 % 0 in /  0.0 mm
05:27 63.5 °F /  17.5 °C 60.3 °F /  15.7 °C 30 in /  1016.5 hPa SSW 1 mph /  1.6 km/h 3 mph /  4.8 km/h 89 % 0 in /  0.0 mm
05:32 63.3 °F /  17.4 °C 60.1 °F /  15.6 °C 30 in /  1016.5 hPa SW 2 mph /  3.2 km/h 3 mph /  4.8 km/h 89 % 0 in /  0.0 mm
05:37 63.3 °F /  17.4 °C 60.1 °F /  15.6 °C 30 in /  1016.5 hPa SW 2 mph /  3.2 km/h 4 mph /  6.4 km/h 89 % 0 in /  0.0 mm
05:42 63.5 °F /  17.5 °C 60.3 °F /  15.7 °C 30 in /  1016.8 hPa SW 1 mph /  1.6 km/h 4 mph /  6.4 km/h 89 % 0 in /  0.0 mm
05:47 63.7 °F /  17.6 °C 60.4 °F /  15.8 °C 30 in /  1016.8 hPa Calm   4 mph /  6.4 km/h 89 % 0 in /  0.0 mm
05:52 63.7 °F /  17.6 °C 60.1 °F /  15.6 °C 30 in /  1016.8 hPa Calm   3 mph /  4.8 km/h 88 % 0 in /  0.0 mm
05:57 63.9 °F /  17.7 °C 60.3 °F /  15.7 °C 30 in /  1016.8 hPa Calm   3 mph /  4.8 km/h 88 % 0 in /  0.0 mm
06:02 63.5 °F /  17.5 °C 59.9 °F /  15.5 °C 30 in /  1016.8 hPa SSW 1 mph /  1.6 km/h 2 mph /  3.2 km/h 88 % 0 in /  0.0 mm
06:12 63.1 °F /  17.3 °C 59.9 °F /  15.5 °C 30 in /  1016.8 hPa Calm   2 mph /  3.2 km/h 89 % 0 in /  0.0 mm
06:17 63 °F /  17.2 °C 59.7 °F /  15.4 °C 30 in /  1017.2 hPa South 1 mph /  1.6 km/h 2 mph /  3.2 km/h 89 % 0 in /  0.0 mm
06:22 62.8 °F /  17.1 °C 59.7 °F /  15.4 °C 30 in /  1017.2 hPa SSW 2 mph /  3.2 km/h 3 mph /  4.8 km/h 90 % 0 in /  0.0 mm
06:27 62.8 °F /  17.1 °C 59.7 °F /  15.4 °C 30 in /  1017.2 hPa SSW 1 mph /  1.6 km/h 3 mph /  4.8 km/h 90 % 0 in /  0.0 mm
06:32 62.6 °F /  17.0 °C 59.5 °F /  15.3 °C 30 in /  1017.2 hPa Calm   3 mph /  4.8 km/h 90 % 0 in /  0.0 mm
06:37 62.4 °F /  16.9 °C 59.4 °F /  15.2 °C 30 in /  1017.2 hPa Calm   3 mph /  4.8 km/h 90 % 0 in /  0.0 mm
06:42 62.8 °F /  17.1 °C 60.1 °F /  15.6 °C 30 in /  1017.2 hPa WSW 2 mph /  3.2 km/h 2 mph /  3.2 km/h 91 % 0 in /  0.0 mm
06:52 63.1 °F /  17.3 °C 59.9 °F /  15.5 °C 30 in /  1017.2 hPa SW 1 mph /  1.6 km/h 4 mph /  6.4 km/h 89 % 0 in /  0.0 mm
07:02 63.1 °F /  17.3 °C 59.9 °F /  15.5 °C 30 in /  1017.2 hPa Calm   4 mph /  6.4 km/h 89 % 0 in /  0.0 mm
07:12 63.3 °F /  17.4 °C 60.1 °F /  15.6 °C 30 in /  1017.2 hPa SSW 2 mph /  3.2 km/h 4 mph /  6.4 km/h 89 % 0 in /  0.0 mm
07:17 63.1 °F /  17.3 °C 60.1 °F /  15.6 °C 30 in /  1017.2 hPa SSW 2 mph /  3.2 km/h 5 mph /  8.0 km/h 90 % 0 in /  0.0 mm
07:22 63 °F /  17.2 °C 60.3 °F /  15.7 °C 30.1 in /  1017.5 hPa SW 2 mph /  3.2 km/h 5 mph /  8.0 km/h 91 % 0 in /  0.0 mm
07:27 63.1 °F /  17.3 °C 60.4 °F /  15.8 °C 30.1 in /  1017.5 hPa SSW 4 mph /  6.4 km/h 5 mph /  8.0 km/h 91 % 0 in /  0.0 mm
07:32 63.1 °F /  17.3 °C 60.4 °F /  15.8 °C 30.1 in /  1017.5 hPa SSW 2 mph /  3.2 km/h 6 mph /  9.7 km/h 91 % 0 in /  0.0 mm
07:42 63.7 °F /  17.6 °C 60.6 °F /  15.9 °C 30.1 in /  1017.5 hPa West 7 mph /  11.3 km/h 9 mph /  14.5 km/h 90 % 0 in /  0.0 mm
07:47 63.9 °F /  17.7 °C 60.6 °F /  15.9 °C 30.1 in /  1017.5 hPa SSW 3 mph /  4.8 km/h 10 mph /  16.1 km/h 89 % 0 in /  0.0 mm
07:57 64 °F /  17.8 °C 60.4 °F /  15.8 °C 30.1 in /  1017.5 hPa South 6 mph /  9.7 km/h 10 mph /  16.1 km/h 88 % 0 in /  0.0 mm
08:02 64 °F /  17.8 °C 60.4 °F /  15.8 °C 30.1 in /  1017.5 hPa SW 8 mph /  12.9 km/h 11 mph /  17.7 km/h 88 % 0 in /  0.0 mm
08:12 64.6 °F /  18.1 °C 60.6 °F /  15.9 °C 30.1 in /  1017.5 hPa SW 6 mph /  9.7 km/h 11 mph /  17.7 km/h 87 % 0 in /  0.0 mm
08:17 64.8 °F /  18.2 °C 60.8 °F /  16.0 °C 30.1 in /  1017.5 hPa SSW 5 mph /  8.0 km/h 11 mph /  17.7 km/h 87 % 0 in /  0.0 mm
08:22 64.8 °F /  18.2 °C 60.4 °F /  15.8 °C 30.1 in /  1017.5 hPa West 4 mph /  6.4 km/h 13 mph /  20.9 km/h 86 % 0 in /  0.0 mm
08:27 64.9 °F /  18.3 °C 60.6 °F /  15.9 °C 30.1 in /  1017.5 hPa SW 6 mph /  9.7 km/h 13 mph /  20.9 km/h 86 % 0 in /  0.0 mm
08:32 65.1 °F /  18.4 °C 60.8 °F /  16.0 °C 30.1 in /  1017.8 hPa SSW 4 mph /  6.4 km/h 13 mph /  20.9 km/h 86 % 0 in /  0.0 mm
08:37 65.1 °F /  18.4 °C 60.4 °F /  15.8 °C 30.1 in /  1017.8 hPa SW 4 mph /  6.4 km/h 12 mph /  19.3 km/h 85 % 0 in /  0.0 mm
08:42 65.3 °F /  18.5 °C 60.6 °F /  15.9 °C 30.1 in /  1017.8 hPa SW 4 mph /  6.4 km/h 12 mph /  19.3 km/h 85 % 0 in /  0.0 mm
08:47 65.5 °F /  18.6 °C 60.8 °F /  16.0 °C 30.1 in /  1017.8 hPa SW 2 mph /  3.2 km/h 11 mph /  17.7 km/h 85 % 0 in /  0.0 mm
08:52 65.7 °F /  18.7 °C 61 °F /  16.1 °C 30.1 in /  1017.8 hPa SW 6 mph /  9.7 km/h 10 mph /  16.1 km/h 85 % 0 in /  0.0 mm
08:57 65.8 °F /  18.8 °C 60.8 °F /  16.0 °C 30.1 in /  1017.8 hPa WSW 5 mph /  8.0 km/h 12 mph /  19.3 km/h 84 % 0 in /  0.0 mm
09:02 66.4 °F /  19.1 °C 61.3 °F /  16.3 °C 30.1 in /  1017.8 hPa West 2 mph /  3.2 km/h 14 mph /  22.5 km/h 84 % 0 in /  0.0 mm
09:12 66.7 °F /  19.3 °C 61 °F /  16.1 °C 30.1 in /  1017.8 hPa West 5 mph /  8.0 km/h 12 mph /  19.3 km/h 82 % 0 in /  0.0 mm
09:17 66.9 °F /  19.4 °C 61.2 °F /  16.2 °C 30.1 in /  1017.8 hPa SSW 5 mph /  8.0 km/h 12 mph /  19.3 km/h 82 % 0 in /  0.0 mm
09:22 66.9 °F /  19.4 °C 61.2 °F /  16.2 °C 30.1 in /  1018.2 hPa NW 3 mph /  4.8 km/h 13 mph /  20.9 km/h 82 % 0 in /  0.0 mm
09:27 66.9 °F /  19.4 °C 61.2 °F /  16.2 °C 30.1 in /  1018.2 hPa WSW 6 mph /  9.7 km/h 13 mph /  20.9 km/h 82 % 0 in /  0.0 mm
09:32 66.7 °F /  19.3 °C 61 °F /  16.1 °C 30.1 in /  1018.2 hPa WSW 6 mph /  9.7 km/h 13 mph /  20.9 km/h 82 % 0 in /  0.0 mm
09:37 66.7 °F /  19.3 °C 61.3 °F /  16.3 °C 30.1 in /  1018.2 hPa West 7 mph /  11.3 km/h 11 mph /  17.7 km/h 83 % 0 in /  0.0 mm
09:42 66.7 °F /  19.3 °C 61 °F /  16.1 °C 30.1 in /  1018.2 hPa SW 7 mph /  11.3 km/h 11 mph /  17.7 km/h 82 % 0 in /  0.0 mm
09:47 66.9 °F /  19.4 °C 61.5 °F /  16.4 °C 30.1 in /  1018.2 hPa SW 7 mph /  11.3 km/h 11 mph /  17.7 km/h 83 % 0 in /  0.0 mm
09:52 66.9 °F /  19.4 °C 61.2 °F /  16.2 °C 30.1 in /  1018.2 hPa SW 2 mph /  3.2 km/h 11 mph /  17.7 km/h 82 % 0 in /  0.0 mm
09:57 67.3 °F /  19.6 °C 61.9 °F /  16.6 °C 30.1 in /  1018.2 hPa WNW 1 mph /  1.6 km/h 12 mph /  19.3 km/h 83 % 0 in /  0.0 mm
10:02 67.5 °F /  19.7 °C 61.7 °F /  16.5 °C 30.1 in /  1018.5 hPa West 6 mph /  9.7 km/h 12 mph /  19.3 km/h 82 % 0 in /  0.0 mm
10:12 67.8 °F /  19.9 °C 62.1 °F /  16.7 °C 30.1 in /  1018.5 hPa SW 6 mph /  9.7 km/h 12 mph /  19.3 km/h 82 % 0 in /  0.0 mm
10:17 68 °F /  20.0 °C 62.2 °F /  16.8 °C 30.1 in /  1018.5 hPa SW 8 mph /  12.9 km/h 12 mph /  19.3 km/h 82 % 0 in /  0.0 mm
10:22 68.2 °F /  20.1 °C 62.4 °F /  16.9 °C 30.1 in /  1018.2 hPa WSW 2 mph /  3.2 km/h 10 mph /  16.1 km/h 82 % 0 in /  0.0 mm
10:32 68.5 °F /  20.3 °C 62.4 °F /  16.9 °C 30.1 in /  1018.2 hPa West 5 mph /  8.0 km/h 13 mph /  20.9 km/h 81 % 0 in /  0.0 mm
10:37 68.7 °F /  20.4 °C 62.6 °F /  17.0 °C 30.1 in /  1018.2 hPa SW 6 mph /  9.7 km/h 13 mph /  20.9 km/h 81 % 0 in /  0.0 mm
10:42 69.1 °F /  20.6 °C 63 °F /  17.2 °C 30.1 in /  1018.2 hPa WSW 5 mph /  8.0 km/h 12 mph /  19.3 km/h 81 % 0 in /  0.0 mm
10:47 69.3 °F /  20.7 °C 62.8 °F /  17.1 °C 30.1 in /  1018.2 hPa WSW 4 mph /  6.4 km/h 12 mph /  19.3 km/h 80 % 0 in /  0.0 mm
10:52 69.4 °F /  20.8 °C 63 °F /  17.2 °C 30.1 in /  1018.2 hPa West 10 mph /  16.1 km/h 12 mph /  19.3 km/h 80 % 0 in /  0.0 mm
10:57 69.6 °F /  20.9 °C 63.1 °F /  17.3 °C 30.1 in /  1018.2 hPa SW 5 mph /  8.0 km/h 15 mph /  24.1 km/h 80 % 0 in /  0.0 mm
11:02 69.8 °F /  21.0 °C 63.3 °F /  17.4 °C 30.1 in /  1018.2 hPa SW 7 mph /  11.3 km/h 16 mph /  25.7 km/h 80 % 0 in /  0.0 mm
11:07 70 °F /  21.1 °C 63.5 °F /  17.5 °C 30.1 in /  1018.2 hPa West 9 mph /  14.5 km/h 16 mph /  25.7 km/h 80 % 0 in /  0.0 mm
11:12 70 °F /  21.1 °C 63.1 °F /  17.3 °C 30.1 in /  1018.2 hPa SW 8 mph /  12.9 km/h 16 mph /  25.7 km/h 79 % 0 in /  0.0 mm
11:17 69.8 °F /  21.0 °C 63 °F /  17.2 °C 30.1 in /  1018.2 hPa West 3 mph /  4.8 km/h 15 mph /  24.1 km/h 79 % 0 in /  0.0 mm
11:22 69.8 °F /  21.0 °C 63.3 °F /  17.4 °C 30.1 in /  1018.2 hPa SW 8 mph /  12.9 km/h 15 mph /  24.1 km/h 80 % 0 in /  0.0 mm
11:27 70 °F /  21.1 °C 63.9 °F /  17.7 °C 30.1 in /  1018.2 hPa SW 9 mph /  14.5 km/h 14 mph /  22.5 km/h 81 % 0 in /  0.0 mm
11:32 70.2 °F /  21.2 °C 63.7 °F /  17.6 °C 30.1 in /  1018.2 hPa SW 13 mph /  20.9 km/h 14 mph /  22.5 km/h 80 % 0 in /  0.0 mm
11:37 70.5 °F /  21.4 °C 63.7 °F /  17.6 °C 30.1 in /  1018.2 hPa WSW 10 mph /  16.1 km/h 16 mph /  25.7 km/h 79 % 0 in /  0.0 mm
11:42 70.7 °F /  21.5 °C 63.9 °F /  17.7 °C 30.1 in /  1018.2 hPa SSW 6 mph /  9.7 km/h 16 mph /  25.7 km/h 79 % 0 in /  0.0 mm
11:47 71.1 °F /  21.7 °C 63.9 °F /  17.7 °C 30.1 in /  1018.2 hPa WSW 6 mph /  9.7 km/h 16 mph /  25.7 km/h 78 % 0 in /  0.0 mm
11:52 71.4 °F /  21.9 °C 64.6 °F /  18.1 °C 30.1 in /  1018.2 hPa WSW 12 mph /  19.3 km/h 15 mph /  24.1 km/h 79 % 0 in /  0.0 mm
11:57 71.4 °F /  21.9 °C 64.2 °F /  17.9 °C 30.1 in /  1018.2 hPa WSW 13 mph /  20.9 km/h 15 mph /  24.1 km/h 78 % 0 in /  0.0 mm
12:02 71.4 °F /  21.9 °C 64.2 °F /  17.9 °C 30.1 in /  1018.2 hPa South 4 mph /  6.4 km/h 15 mph /  24.1 km/h 78 % 0 in /  0.0 mm
12:07 71.4 °F /  21.9 °C 64.6 °F /  18.1 °C 30.1 in /  1018.2 hPa SW 2 mph /  3.2 km/h 15 mph /  24.1 km/h 79 % 0 in /  0.0 mm
12:12 71.8 °F /  22.1 °C 64.6 °F /  18.1 °C 30.1 in /  1018.2 hPa WSW 7 mph /  11.3 km/h 16 mph /  25.7 km/h 78 % 0 in /  0.0 mm
12:17 72.5 °F /  22.5 °C 65.3 °F /  18.5 °C 30.1 in /  1018.2 hPa West 6 mph /  9.7 km/h 16 mph /  25.7 km/h 78 % 0 in /  0.0 mm
12:22 72.7 °F /  22.6 °C 64.8 °F /  18.2 °C 30.1 in /  1018.2 hPa SW 8 mph /  12.9 km/h 17 mph /  27.4 km/h 76 % 0 in /  0.0 mm
12:32 72.1 °F /  22.3 °C 64.6 °F /  18.1 °C 30.1 in /  1018.5 hPa WSW 10 mph /  16.1 km/h 18 mph /  29.0 km/h 77 % 0 in /  0.0 mm
12:42 72.7 °F /  22.6 °C 65.5 °F /  18.6 °C 30.1 in /  1018.5 hPa SW 11 mph /  17.7 km/h 20 mph /  32.2 km/h 78 % 0 in /  0.0 mm
12:47 72.9 °F /  22.7 °C 65.3 °F /  18.5 °C 30.1 in /  1018.2 hPa WSW 11 mph /  17.7 km/h 19 mph /  30.6 km/h 77 % 0 in /  0.0 mm
12:52 72.7 °F /  22.6 °C 64.8 °F /  18.2 °C 30.1 in /  1018.2 hPa West 11 mph /  17.7 km/h 14 mph /  22.5 km/h 76 % 0 in /  0.0 mm
12:57 72.7 °F /  22.6 °C 64.8 °F /  18.2 °C 30.1 in /  1018.2 hPa WSW 4 mph /  6.4 km/h 13 mph /  20.9 km/h 76 % 0 in /  0.0 mm
13:02 72.9 °F /  22.7 °C 64.8 °F /  18.2 °C 30.1 in /  1018.5 hPa SW 8 mph /  12.9 km/h 15 mph /  24.1 km/h 76 % 0 in /  0.0 mm
13:07 72.7 °F /  22.6 °C 64.8 °F /  18.2 °C 30.1 in /  1018.5 hPa West 3 mph /  4.8 km/h 15 mph /  24.1 km/h 76 % 0 in /  0.0 mm
13:12 72.9 °F /  22.7 °C 64.8 °F /  18.2 °C 30.1 in /  1018.2 hPa West 9 mph /  14.5 km/h 15 mph /  24.1 km/h 76 % 0 in /  0.0 mm
13:17 72.9 °F /  22.7 °C 64.8 °F /  18.2 °C 30.1 in /  1018.5 hPa WSW 9 mph /  14.5 km/h 15 mph /  24.1 km/h 76 % 0 in /  0.0 mm
13:22 72.7 °F /  22.6 °C 64.8 °F /  18.2 °C 30.1 in /  1018.2 hPa West 9 mph /  14.5 km/h 15 mph /  24.1 km/h 76 % 0 in /  0.0 mm
13:27 72.7 °F /  22.6 °C 64.8 °F /  18.2 °C 30.1 in /  1018.5 hPa SW 4 mph /  6.4 km/h 16 mph /  25.7 km/h 76 % 0 in /  0.0 mm
13:32 72.7 °F /  22.6 °C 65.1 °F /  18.4 °C 30.1 in /  1018.2 hPa SW 4 mph /  6.4 km/h 16 mph /  25.7 km/h 77 % 0 in /  0.0 mm
13:37 72.5 °F /  22.5 °C 64.9 °F /  18.3 °C 30.1 in /  1018.2 hPa West 4 mph /  6.4 km/h 16 mph /  25.7 km/h 77 % 0 in /  0.0 mm
13:42 72.9 °F /  22.7 °C 65.3 °F /  18.5 °C 30.1 in /  1018.2 hPa SW 9 mph /  14.5 km/h 16 mph /  25.7 km/h 77 % 0 in /  0.0 mm
13:47 73.2 °F /  22.9 °C 65.7 °F /  18.7 °C 30.1 in /  1017.8 hPa WSW 7 mph /  11.3 km/h 14 mph /  22.5 km/h 77 % 0 in /  0.0 mm
13:52 73.6 °F /  23.1 °C 65.5 °F /  18.6 °C 30.1 in /  1018.2 hPa WSW 12 mph /  19.3 km/h 14 mph /  22.5 km/h 76 % 0 in /  0.0 mm
13:57 73.8 °F /  23.2 °C 65.3 °F /  18.5 °C 30.1 in /  1017.8 hPa WSW 7 mph /  11.3 km/h 16 mph /  25.7 km/h 75 % 0 in /  0.0 mm
14:02 73.9 °F /  23.3 °C 65.1 °F /  18.4 °C 30.1 in /  1017.8 hPa WSW 9 mph /  14.5 km/h 16 mph /  25.7 km/h 74 % 0 in /  0.0 mm
14:07 74.1 °F /  23.4 °C 64.9 °F /  18.3 °C 30.1 in /  1017.8 hPa SSW 11 mph /  17.7 km/h 16 mph /  25.7 km/h 73 % 0 in /  0.0 mm
14:12 74.1 °F /  23.4 °C 65.3 °F /  18.5 °C 30.1 in /  1017.8 hPa West 5 mph /  8.0 km/h 14 mph /  22.5 km/h 74 % 0 in /  0.0 mm
14:17 74.3 °F /  23.5 °C 65.1 °F /  18.4 °C 30.1 in /  1017.8 hPa WSW 8 mph /  12.9 km/h 17 mph /  27.4 km/h 73 % 0 in /  0.0 mm
14:22 74.5 °F /  23.6 °C 64.9 °F /  18.3 °C 30.1 in /  1017.8 hPa WSW 9 mph /  14.5 km/h 17 mph /  27.4 km/h 72 % 0 in /  0.0 mm
14:27 75 °F /  23.9 °C 64.9 °F /  18.3 °C 30.1 in /  1017.8 hPa West 7 mph /  11.3 km/h 17 mph /  27.4 km/h 71 % 0 in /  0.0 mm
14:32 75 °F /  23.9 °C 64.6 °F /  18.1 °C 30.1 in /  1017.5 hPa SW 5 mph /  8.0 km/h 16 mph /  25.7 km/h 70 % 0 in /  0.0 mm
14:37 75.2 °F /  24.0 °C 65.1 °F /  18.4 °C 30.1 in /  1017.8 hPa West 7 mph /  11.3 km/h 16 mph /  25.7 km/h 71 % 0 in /  0.0 mm
14:42 75 °F /  23.9 °C 64.9 °F /  18.3 °C 30.1 in /  1017.8 hPa WSW 5 mph /  8.0 km/h 16 mph /  25.7 km/h 71 % 0 in /  0.0 mm
14:47 75 °F /  23.9 °C 64.6 °F /  18.1 °C 30.1 in /  1017.5 hPa West 9 mph /  14.5 km/h 17 mph /  27.4 km/h 70 % 0 in /  0.0 mm
14:52 75.2 °F /  24.0 °C 64.8 °F /  18.2 °C 30.1 in /  1017.5 hPa West 10 mph /  16.1 km/h 17 mph /  27.4 km/h 70 % 0 in /  0.0 mm
14:57 75.6 °F /  24.2 °C 64.8 °F /  18.2 °C 30.1 in /  1017.5 hPa West 11 mph /  17.7 km/h 17 mph /  27.4 km/h 69 % 0 in /  0.0 mm
15:02 75.6 °F /  24.2 °C 65.5 °F /  18.6 °C 30.1 in /  1017.5 hPa West 5 mph /  8.0 km/h 17 mph /  27.4 km/h 71 % 0 in /  0.0 mm
15:12 75.7 °F /  24.3 °C 65.7 °F /  18.7 °C 30.1 in /  1017.5 hPa SSW 10 mph /  16.1 km/h 15 mph /  24.1 km/h 71 % 0 in /  0.0 mm
15:17 76.3 °F /  24.6 °C 66.2 °F /  19.0 °C 30.1 in /  1017.5 hPa SW 8 mph /  12.9 km/h 15 mph /  24.1 km/h 71 % 0 in /  0.0 mm
15:22 76.3 °F /  24.6 °C 65.3 °F /  18.5 °C 30.1 in /  1017.5 hPa SSW 16 mph /  25.7 km/h 17 mph /  27.4 km/h 69 % 0 in /  0.0 mm
15:27 75.7 °F /  24.3 °C 65.3 °F /  18.5 °C 30.1 in /  1017.5 hPa West 11 mph /  17.7 km/h 20 mph /  32.2 km/h 70 % 0 in /  0.0 mm
15:37 76.8 °F /  24.9 °C 66.7 °F /  19.3 °C 30.1 in /  1017.5 hPa WSW 14 mph /  22.5 km/h 21 mph /  33.8 km/h 71 % 0 in /  0.0 mm
15:42 77.4 °F /  25.2 °C 66 °F /  18.9 °C 30.1 in /  1017.5 hPa West 13 mph /  20.9 km/h 19 mph /  30.6 km/h 68 % 0 in /  0.0 mm
15:47 77 °F /  25.0 °C 65.1 °F /  18.4 °C 30.1 in /  1017.5 hPa WSW 13 mph /  20.9 km/h 22 mph /  35.4 km/h 67 % 0 in /  0.0 mm
15:52 77 °F /  25.0 °C 65.7 °F /  18.7 °C 30.1 in /  1017.5 hPa SW 14 mph /  22.5 km/h 22 mph /  35.4 km/h 68 % 0 in /  0.0 mm
15:57 77.4 °F /  25.2 °C 66 °F /  18.9 °C 30.1 in /  1017.5 hPa WSW 14 mph /  22.5 km/h 22 mph /  35.4 km/h 68 % 0 in /  0.0 mm
16:02 77.4 °F /  25.2 °C 65.5 °F /  18.6 °C 30 in /  1017.2 hPa WSW 14 mph /  22.5 km/h 21 mph /  33.8 km/h 67 % 0 in /  0.0 mm
16:07 77.4 °F /  25.2 °C 65.1 °F /  18.4 °C 30 in /  1017.2 hPa SW 20 mph /  32.2 km/h 22 mph /  35.4 km/h 66 % 0 in /  0.0 mm
16:12 76.8 °F /  24.9 °C 65.5 °F /  18.6 °C 30 in /  1017.2 hPa WSW 15 mph /  24.1 km/h 23 mph /  37.0 km/h 68 % 0 in /  0.0 mm
16:17 76.8 °F /  24.9 °C 65.5 °F /  18.6 °C 30 in /  1017.2 hPa WSW 8 mph /  12.9 km/h 23 mph /  37.0 km/h 68 % 0 in /  0.0 mm
16:22 76.8 °F /  24.9 °C 65.8 °F /  18.8 °C 30 in /  1017.2 hPa SSW 7 mph /  11.3 km/h 23 mph /  37.0 km/h 69 % 0 in /  0.0 mm
16:32 77.5 °F /  25.3 °C 64.8 °F /  18.2 °C 30 in /  1017.2 hPa SW 6 mph /  9.7 km/h 17 mph /  27.4 km/h 65 % 0 in /  0.0 mm
16:37 77.4 °F /  25.2 °C 65.1 °F /  18.4 °C 30 in /  1016.8 hPa SW 16 mph /  25.7 km/h 22 mph /  35.4 km/h 66 % 0 in /  0.0 mm
16:42 77.2 °F /  25.1 °C 64.9 °F /  18.3 °C 30 in /  1017.2 hPa SW 12 mph /  19.3 km/h 22 mph /  35.4 km/h 66 % 0 in /  0.0 mm
16:47 77.5 °F /  25.3 °C 64.8 °F /  18.2 °C 30 in /  1016.8 hPa SW 14 mph /  22.5 km/h 19 mph /  30.6 km/h 65 % 0 in /  0.0 mm
16:52 77.5 °F /  25.3 °C 64.4 °F /  18.0 °C 30 in /  1016.8 hPa SW 12 mph /  19.3 km/h 20 mph /  32.2 km/h 64 % 0 in /  0.0 mm
16:57 77.7 °F /  25.4 °C 63.7 °F /  17.6 °C 30 in /  1016.8 hPa West 11 mph /  17.7 km/h 20 mph /  32.2 km/h 62 % 0 in /  0.0 mm
17:02 78.1 °F /  25.6 °C 63.5 °F /  17.5 °C 30 in /  1016.8 hPa WSW 7 mph /  11.3 km/h 20 mph /  32.2 km/h 61 % 0 in /  0.0 mm
17:07 78.4 °F /  25.8 °C 64.8 °F /  18.2 °C 30 in /  1016.8 hPa SW 11 mph /  17.7 km/h 19 mph /  30.6 km/h 63 % 0 in /  0.0 mm
17:12 78.6 °F /  25.9 °C 64 °F /  17.8 °C 30 in /  1016.8 hPa WSW 6 mph /  9.7 km/h 19 mph /  30.6 km/h 61 % 0 in /  0.0 mm
17:17 79 °F /  26.1 °C 64.4 °F /  18.0 °C 30 in /  1016.8 hPa West 6 mph /  9.7 km/h 19 mph /  30.6 km/h 61 % 0 in /  0.0 mm
17:22 79 °F /  26.1 °C 63.9 °F /  17.7 °C 30 in /  1016.8 hPa WSW 18 mph /  29.0 km/h 18 mph /  29.0 km/h 60 % 0 in /  0.0 mm
17:27 79 °F /  26.1 °C 64.4 °F /  18.0 °C 30 in /  1016.8 hPa West 13 mph /  20.9 km/h 21 mph /  33.8 km/h 61 % 0 in /  0.0 mm
17:32 79 °F /  26.1 °C 63.9 °F /  17.7 °C 30 in /  1016.5 hPa WSW 8 mph /  12.9 km/h 21 mph /  33.8 km/h 60 % 0 in /  0.0 mm
17:37 79.3 °F /  26.3 °C 65.1 °F /  18.4 °C 30 in /  1016.5 hPa SW 7 mph /  11.3 km/h 21 mph /  33.8 km/h 62 % 0 in /  0.0 mm
17:42 79.2 °F /  26.2 °C 64.9 °F /  18.3 °C 30 in /  1016.5 hPa West 13 mph /  20.9 km/h 18 mph /  29.0 km/h 62 % 0 in /  0.0 mm
17:47 79 °F /  26.1 °C 64.8 °F /  18.2 °C 30 in /  1016.5 hPa West 9 mph /  14.5 km/h 18 mph /  29.0 km/h 62 % 0 in /  0.0 mm
17:52 79 °F /  26.1 °C 64.4 °F /  18.0 °C 30 in /  1016.5 hPa WSW 13 mph /  20.9 km/h 21 mph /  33.8 km/h 61 % 0 in /  0.0 mm
17:57 79.2 °F /  26.2 °C 64.9 °F /  18.3 °C 30 in /  1016.5 hPa SSW 7 mph /  11.3 km/h 24 mph /  38.6 km/h 62 % 0 in /  0.0 mm
18:02 79.2 °F /  26.2 °C 64.6 °F /  18.1 °C 30 in /  1016.5 hPa West 15 mph /  24.1 km/h 24 mph /  38.6 km/h 61 % 0 in /  0.0 mm
18:07 79.2 °F /  26.2 °C 64.6 °F /  18.1 °C 30 in /  1016.5 hPa SW 18 mph /  29.0 km/h 20 mph /  32.2 km/h 61 % 0 in /  0.0 mm
18:12 78.8 °F /  26.0 °C 64.8 °F /  18.2 °C 30 in /  1016.1 hPa SSW 14 mph /  22.5 km/h 19 mph /  30.6 km/h 62 % 0 in /  0.0 mm
18:22 78.4 °F /  25.8 °C 64.8 °F /  18.2 °C 30 in /  1016.5 hPa SW 5 mph /  8.0 km/h 20 mph /  32.2 km/h 63 % 0 in /  0.0 mm
18:27 78.3 °F /  25.7 °C 64.2 °F /  17.9 °C 30 in /  1016.5 hPa SW 10 mph /  16.1 km/h 22 mph /  35.4 km/h 62 % 0 in /  0.0 mm
18:32 78.3 °F /  25.7 °C 64.6 °F /  18.1 °C 30 in /  1016.1 hPa WSW 8 mph /  12.9 km/h 22 mph /  35.4 km/h 63 % 0 in /  0.0 mm
18:37 78.4 °F /  25.8 °C 65.7 °F /  18.7 °C 30 in /  1016.1 hPa SW 19 mph /  30.6 km/h 19 mph /  30.6 km/h 65 % 0 in /  0.0 mm
18:42 78.4 °F /  25.8 °C 65.3 °F /  18.5 °C 30 in /  1016.1 hPa SW 11 mph /  17.7 km/h 19 mph /  30.6 km/h 64 % 0 in /  0.0 mm
18:47 78.4 °F /  25.8 °C 64.8 °F /  18.2 °C 30 in /  1016.1 hPa WSW 13 mph /  20.9 km/h 21 mph /  33.8 km/h 63 % 0 in /  0.0 mm
18:52 78.6 °F /  25.9 °C 65.5 °F /  18.6 °C 30 in /  1016.1 hPa SSW 11 mph /  17.7 km/h 21 mph /  33.8 km/h 64 % 0 in /  0.0 mm
18:57 78.3 °F /  25.7 °C 64.6 °F /  18.1 °C 30 in /  1016.1 hPa WSW 6 mph /  9.7 km/h 21 mph /  33.8 km/h 63 % 0 in /  0.0 mm
19:02 78.1 °F /  25.6 °C 64.9 °F /  18.3 °C 30 in /  1016.1 hPa WSW 12 mph /  19.3 km/h 21 mph /  33.8 km/h 64 % 0 in /  0.0 mm
19:07 77.5 °F /  25.3 °C 65.3 °F /  18.5 °C 30 in /  1016.1 hPa SW 9 mph /  14.5 km/h 20 mph /  32.2 km/h 66 % 0 in /  0.0 mm
19:12 77 °F /  25.0 °C 65.1 °F /  18.4 °C 30 in /  1016.1 hPa SW 6 mph /  9.7 km/h 17 mph /  27.4 km/h 67 % 0 in /  0.0 mm
19:17 77 °F /  25.0 °C 65.1 °F /  18.4 °C 30 in /  1016.1 hPa West 5 mph /  8.0 km/h 19 mph /  30.6 km/h 67 % 0 in /  0.0 mm
19:22 76.8 °F /  24.9 °C 64.9 °F /  18.3 °C 30 in /  1016.1 hPa SW 6 mph /  9.7 km/h 19 mph /  30.6 km/h 67 % 0 in /  0.0 mm
19:27 76.8 °F /  24.9 °C 65.5 °F /  18.6 °C 30 in /  1016.1 hPa SW 16 mph /  25.7 km/h 19 mph /  30.6 km/h 68 % 0 in /  0.0 mm
19:32 76.6 °F /  24.8 °C 65.3 °F /  18.5 °C 30 in /  1016.1 hPa SW 16 mph /  25.7 km/h 20 mph /  32.2 km/h 68 % 0 in /  0.0 mm
19:37 76.5 °F /  24.7 °C 65.5 °F /  18.6 °C 30 in /  1016.1 hPa SW 8 mph /  12.9 km/h 20 mph /  32.2 km/h 69 % 0 in /  0.0 mm
19:42 76.6 °F /  24.8 °C 65.7 °F /  18.7 °C 30 in /  1016.1 hPa SW 7 mph /  11.3 km/h 20 mph /  32.2 km/h 69 % 0 in /  0.0 mm
19:47 76.8 °F /  24.9 °C 64.6 °F /  18.1 °C 30 in /  1016.1 hPa SW 11 mph /  17.7 km/h 19 mph /  30.6 km/h 66 % 0 in /  0.0 mm
19:52 77.4 °F /  25.2 °C 63.3 °F /  17.4 °C 30 in /  1016.1 hPa SW 9 mph /  14.5 km/h 19 mph /  30.6 km/h 62 % 0 in /  0.0 mm
19:57 77.7 °F /  25.4 °C 63.1 °F /  17.3 °C 30 in /  1016.1 hPa West 10 mph /  16.1 km/h 19 mph /  30.6 km/h 61 % 0 in /  0.0 mm
20:02 77.7 °F /  25.4 °C 62.2 °F /  16.8 °C 30 in /  1016.5 hPa SW 14 mph /  22.5 km/h 19 mph /  30.6 km/h 59 % 0 in /  0.0 mm
20:12 76.8 °F /  24.9 °C 61.3 °F /  16.3 °C 30 in /  1016.5 hPa West 11 mph /  17.7 km/h 20 mph /  32.2 km/h 59 % 0 in /  0.0 mm
20:17 76.6 °F /  24.8 °C 61.7 °F /  16.5 °C 30 in /  1016.5 hPa West 12 mph /  19.3 km/h 21 mph /  33.8 km/h 60 % 0 in /  0.0 mm
20:22 76.5 °F /  24.7 °C 62.1 °F /  16.7 °C 30 in /  1016.5 hPa WSW 11 mph /  17.7 km/h 21 mph /  33.8 km/h 61 % 0 in /  0.0 mm
20:27 76.1 °F /  24.5 °C 61.7 °F /  16.5 °C 30 in /  1016.5 hPa SSW 7 mph /  11.3 km/h 19 mph /  30.6 km/h 61 % 0 in /  0.0 mm
20:32 75.7 °F /  24.3 °C 61.9 °F /  16.6 °C 30 in /  1016.5 hPa WSW 8 mph /  12.9 km/h 19 mph /  30.6 km/h 62 % 0 in /  0.0 mm
20:37 75.4 °F /  24.1 °C 61.9 °F /  16.6 °C 30 in /  1016.5 hPa WSW 12 mph /  19.3 km/h 17 mph /  27.4 km/h 63 % 0 in /  0.0 mm
20:42 75 °F /  23.9 °C 62.1 °F /  16.7 °C 30 in /  1016.8 hPa West 9 mph /  14.5 km/h 17 mph /  27.4 km/h 64 % 0 in /  0.0 mm
20:47 74.8 °F /  23.8 °C 61.9 °F /  16.6 °C 30 in /  1016.8 hPa WSW 11 mph /  17.7 km/h 17 mph /  27.4 km/h 64 % 0 in /  0.0 mm
20:52 74.8 °F /  23.8 °C 61.9 °F /  16.6 °C 30 in /  1016.8 hPa SW 5 mph /  8.0 km/h 14 mph /  22.5 km/h 64 % 0 in /  0.0 mm
20:57 74.3 °F /  23.5 °C 61.7 °F /  16.5 °C 30 in /  1016.8 hPa WSW 11 mph /  17.7 km/h 14 mph /  22.5 km/h 65 % 0 in /  0.0 mm
21:02 74.1 °F /  23.4 °C 61.2 °F /  16.2 °C 30 in /  1016.8 hPa West 8 mph /  12.9 km/h 14 mph /  22.5 km/h 64 % 0 in /  0.0 mm
21:12 73.8 °F /  23.2 °C 61.3 °F /  16.3 °C 30 in /  1016.8 hPa WSW 6 mph /  9.7 km/h 18 mph /  29.0 km/h 65 % 0 in /  0.0 mm
21:17 73.6 °F /  23.1 °C 61.5 °F /  16.4 °C 30 in /  1016.8 hPa SW 4 mph /  6.4 km/h 18 mph /  29.0 km/h 66 % 0 in /  0.0 mm
21:22 73.2 °F /  22.9 °C 61.5 °F /  16.4 °C 30 in /  1016.8 hPa SW 9 mph /  14.5 km/h 13 mph /  20.9 km/h 67 % 0 in /  0.0 mm
21:27 73 °F /  22.8 °C 61.5 °F /  16.4 °C 30 in /  1016.8 hPa WSW 7 mph /  11.3 km/h 13 mph /  20.9 km/h 67 % 0 in /  0.0 mm
21:32 72.9 °F /  22.7 °C 61.7 °F /  16.5 °C 30 in /  1016.8 hPa SW 6 mph /  9.7 km/h 14 mph /  22.5 km/h 68 % 0 in /  0.0 mm
21:37 72.7 °F /  22.6 °C 61.9 °F /  16.6 °C 30 in /  1017.2 hPa WSW 7 mph /  11.3 km/h 14 mph /  22.5 km/h 69 % 0 in /  0.0 mm
21:42 72.5 °F /  22.5 °C 61.7 °F /  16.5 °C 30 in /  1017.2 hPa WSW 8 mph /  12.9 km/h 14 mph /  22.5 km/h 69 % 0 in /  0.0 mm
21:47 72.3 °F /  22.4 °C 62.1 °F /  16.7 °C 30 in /  1017.2 hPa SW 3 mph /  4.8 km/h 14 mph /  22.5 km/h 70 % 0 in /  0.0 mm
21:52 72.1 °F /  22.3 °C 61.9 °F /  16.6 °C 30 in /  1017.2 hPa SW 7 mph /  11.3 km/h 16 mph /  25.7 km/h 70 % 0 in /  0.0 mm
21:57 72 °F /  22.2 °C 62.1 °F /  16.7 °C 30 in /  1017.2 hPa SW 4 mph /  6.4 km/h 16 mph /  25.7 km/h 71 % 0 in /  0.0 mm
22:02 71.8 °F /  22.1 °C 61.9 °F /  16.6 °C 30 in /  1017.2 hPa WSW 10 mph /  16.1 km/h 14 mph /  22.5 km/h 71 % 0 in /  0.0 mm
22:07 71.6 °F /  22.0 °C 62.1 °F /  16.7 °C 30 in /  1017.2 hPa SW 8 mph /  12.9 km/h 12 mph /  19.3 km/h 72 % 0 in /  0.0 mm
22:12 71.2 °F /  21.8 °C 62.1 °F /  16.7 °C 30 in /  1017.2 hPa West 4 mph /  6.4 km/h 12 mph /  19.3 km/h 73 % 0 in /  0.0 mm
22:17 71.1 °F /  21.7 °C 61.9 °F /  16.6 °C 30 in /  1017.2 hPa SSW 5 mph /  8.0 km/h 12 mph /  19.3 km/h 73 % 0 in /  0.0 mm
22:22 70.7 °F /  21.5 °C 62.1 °F /  16.7 °C 30.1 in /  1017.5 hPa SW 7 mph /  11.3 km/h 11 mph /  17.7 km/h 74 % 0 in /  0.0 mm
22:27 70.5 °F /  21.4 °C 61.9 °F /  16.6 °C 30.1 in /  1017.5 hPa West 7 mph /  11.3 km/h 11 mph /  17.7 km/h 74 % 0 in /  0.0 mm
22:32 70.3 °F /  21.3 °C 61.7 °F /  16.5 °C 30.1 in /  1017.5 hPa WSW 10 mph /  16.1 km/h 12 mph /  19.3 km/h 74 % 0 in /  0.0 mm
22:37 70.3 °F /  21.3 °C 61.7 °F /  16.5 °C 30.1 in /  1017.5 hPa WSW 9 mph /  14.5 km/h 12 mph /  19.3 km/h 74 % 0 in /  0.0 mm
22:42 70.2 °F /  21.2 °C 61.5 °F /  16.4 °C 30.1 in /  1017.5 hPa WSW 3 mph /  4.8 km/h 12 mph /  19.3 km/h 74 % 0 in /  0.0 mm
22:47 70 °F /  21.1 °C 61.7 °F /  16.5 °C 30.1 in /  1017.8 hPa WSW 7 mph /  11.3 km/h 10 mph /  16.1 km/h 75 % 0 in /  0.0 mm
22:52 69.6 °F /  20.9 °C 61.3 °F /  16.3 °C 30.1 in /  1017.5 hPa SSW 6 mph /  9.7 km/h 11 mph /  17.7 km/h 75 % 0 in /  0.0 mm
22:57 69.6 °F /  20.9 °C 61.3 °F /  16.3 °C 30.1 in /  1017.5 hPa SW 3 mph /  4.8 km/h 11 mph /  17.7 km/h 75 % 0 in /  0.0 mm
23:02 69.4 °F /  20.8 °C 61.5 °F /  16.4 °C 30.1 in /  1017.8 hPa WSW 7 mph /  11.3 km/h 11 mph /  17.7 km/h 76 % 0 in /  0.0 mm
23:07 69.3 °F /  20.7 °C 61.3 °F /  16.3 °C 30.1 in /  1017.8 hPa WSW 5 mph /  8.0 km/h 10 mph /  16.1 km/h 76 % 0 in /  0.0 mm
23:17 68.7 °F /  20.4 °C 61.2 °F /  16.2 °C 30.1 in /  1017.8 hPa WSW 5 mph /  8.0 km/h 9 mph /  14.5 km/h 77 % 0 in /  0.0 mm
23:22 68.4 °F /  20.2 °C 61.2 °F /  16.2 °C 30.1 in /  1017.8 hPa SW 4 mph /  6.4 km/h 9 mph /  14.5 km/h 78 % 0 in /  0.0 mm
23:32 68.4 °F /  20.2 °C 61.2 °F /  16.2 °C 30.1 in /  1017.8 hPa SW 5 mph /  8.0 km/h 8 mph /  12.9 km/h 78 % 0 in /  0.0 mm
23:42 68 °F /  20.0 °C 61.2 °F /  16.2 °C 30.1 in /  1017.8 hPa WSW 3 mph /  4.8 km/h 9 mph /  14.5 km/h 79 % 0 in /  0.0 mm
23:47 67.8 °F /  19.9 °C 61 °F /  16.1 °C 30.1 in /  1017.8 hPa WSW 3 mph /  4.8 km/h 9 mph /  14.5 km/h 79 % 0 in /  0.0 mm
23:52 67.6 °F /  19.8 °C 61 °F /  16.1 °C 30.1 in /  1017.8 hPa WSW 2 mph /  3.2 km/h 8 mph /  12.9 km/h 79 % 0 in /  0.0 mm
23:57 67.5 °F /  19.7 °C 61.2 °F /  16.2 °C 30.1 in /  1017.8 hPa SSW 3 mph /  4.8 km/h 7 mph /  11.3 km/h 80 % 0 in /  0.0 mm
Meteo18
Compliments of Weather Underground - 4 mb

Script developed by  Jim McMurry - jmcmurry@mwt.net Adapted for the template by  Wim van der Kuil - Leuven-Template.eu

You find our weather info also at:

European Weather Network

Weather Underground

Equipment we use:

Weather-station
Davis Vue

Weather-program
Meteohub

Weather-server
Raspberry PI 2 B+

Provider
1 and 1

Davis Vue

Meteohub

Raspberry PI 2 B+

1 and 1